Huvudsida
METAR-TAF:

METAR-TAF

Flygplatser :

Warszawa-Frédéric Chopins flygplats

Warszawa, Polen

latitud: 52-10N, longitud: 020-58E, höjd: 106 m

Aktuellt väderrapport

Denna rapport gjordes för 31 minuter sedan, klockan 14:00 UTC
Vind 6 kt från ost
Temperatur 4°C
Fuktighet 75%
Tryck 1039 hPa
Sikt 10 km eller mer
Få moln på en höjd av 2000 ft
Brutna moln på en höjd av 2600 ft

METAR: EPWA 161400Z 10006KT 9999 FEW020 BKN026 04/00 Q1039 NOSIG

Tid: 15:31 (14:31 UTC)

Väderprognos

Denna rapport gjordes för 3 timmar och 1 minuter sedan, klockan 11:30 UTC
Prognos gäller från 16 kl. 12 UTC till 17 kl. 12 UTC
Vind 10 kt från ost
Sikt 10 km eller mer
Brutna moln på en höjd av 2500 ft
Sannolikhet 40% :
Temporärt
från 16 kl. 20 UTC till 17 kl. 07 UTC
Brutna moln på en höjd av 700 ft

TAF: EPWA 161130Z 1612/1712 10010KT 9999 BKN025 PROB40 TEMPO 1620/1707 BKN007

Aktuella väderrapporter och prognoser från 4000 flygplatser (METAR- och TAF-rapporter).

De tillgängliga stationerna syns som gula och röda prickar på kartan.

För musen över prickarna för att se namnen på stationerna.

Klicka sedan för att få väderrapporter och prognoser.

För att ändra kartan: Klicka på de gröna knapparna med ett svart kors på för att zooma in; den gröna knappen med ett streck på för att zooma ut; eller på de gröna pilarna för angränsande kartor.


METAR-TAF: